D/T METAR WX W/SPE G/SPE TEMP DEWP FEEL
25/05/22 01:50 EGJB 250050Z 26009KT 9999 FEW010 11/10 Q1015 10.4mph 11°C 10°C 12.3°C
25/05/22 00:50 EGJB 242350Z 26008KT 9999 FEW010 11/10 Q1015 9.2mph 11°C 10°C 12.3°C
24/05/22 23:50 EGJB 242250Z 26007KT CAVOK 11/10 Q1015 8.1mph 11°C 10°C 12.3°C
24/05/22 22:50 EGJB 242150Z 28008KT 9999 FEW015 11/10 Q1014 9.2mph 11°C 10°C 12.3°C
24/05/22 21:50 EGJB 242050Z 27008KT 9999 FEW015 11/10 Q1014 9.2mph 11°C 10°C 12.3°C
24/05/22 20:50 EGJB 241950Z 28010KT 9999 FEW014 12/10 Q1013 11.5mph 12°C 10°C 13.3°C
24/05/22 20:20 EGJB 241920Z 28010KT 9999 FEW014 12/10 Q1013 11.5mph 12°C 10°C 13.3°C
24/05/22 19:50 EGJB 241850Z 28011KT 9999 FEW014 13/10 Q1013 12.7mph 13°C 10°C 14.3°C
24/05/22 19:20 EGJB 241820Z 28011KT 9999 FEW014 13/10 Q1012 12.7mph 13°C 10°C 14.3°C
24/05/22 18:50 EGJB 241750Z 28012KT 9999 FEW014 14/10 Q1012 13.8mph 14°C 10°C 15.3°C
24/05/22 18:20 EGJB 241720Z 28011KT 9999 FEW014 14/10 Q1012 12.7mph 14°C 10°C 15.3°C
24/05/22 17:50 EGJB 241650Z 28012KT 9999 FEW014 14/10 Q1012 13.8mph 14°C 10°C 15.3°C
24/05/22 17:20 EGJB 241620Z 29013KT 9999 FEW014 15/10 Q1012 15.0mph 15°C 10°C 16.3°C
24/05/22 16:50 EGJB 241550Z 27013KT 9999 FEW014 14/10 Q1011 15.0mph 14°C 10°C 15.3°C
24/05/22 16:20 EGJB 241520Z 29012KT 9999 FEW016 15/11 Q1011 13.8mph 15°C 11°C 16.8°C
24/05/22 15:50 EGJB 241450Z 29011KT 9999 FEW016 15/11 Q1011 12.7mph 15°C 11°C 16.8°C
24/05/22 15:20 EGJB 241420Z 29012KT 9999 FEW016 15/09 Q1011 13.8mph 15°C 9°C 15.8°C
24/05/22 14:50 EGJB 241350Z 28012KT 9999 FEW015 FEW018TCU 15/10 Q1011 13.8mph 15°C 10°C 16.3°C
24/05/22 14:20 EGJB 241320Z 28011KT 9999 FEW015 FEW018TCU 16/11 Q1010 12.7mph 16°C 11°C 17.8°C
24/05/22 13:50 EGJB 241250Z 28012KT 9999 FEW015 FEW018TCU 13/10 Q1010 13.8mph 13°C 10°C 14.3°C
24/05/22 13:20 EGJB 241220Z 27011KT 250V310 9999 FEW016 FEW018TCU 15/10 Q1010 12.7mph 15°C 10°C 16.3°C
24/05/22 12:50 EGJB 241150Z 28011KT 260V320 9999 FEW016 FEW018TCU 15/10 Q1010 12.7mph 15°C 10°C 16.3°C
24/05/22 12:20 EGJB 241120Z 29010KT 9999 FEW015 FEW017TCU 15/11 Q1010 11.5mph 15°C 11°C 16.8°C
24/05/22 11:50 EGJB 241050Z 28011KT 9999 FEW014 FEW016TCU 14/10 Q1009 12.7mph 14°C 10°C 15.3°C
24/05/22 11:20 EGJB 241020Z 27011KT 9999 SCT014 13/10 Q1009 12.7mph 13°C 10°C 14.3°C
24/05/22 10:50 EGJB 240950Z 27011KT 9999 SCT013 13/10 Q1009 12.7mph 13°C 10°C 14.3°C
24/05/22 10:20 EGJB 240920Z 26011KT 9999 FEW020 14/10 Q1009 12.7mph 14°C 10°C 15.3°C
24/05/22 09:50 EGJB 240850Z 27010KT 9999 FEW015 14/10 Q1009 11.5mph 14°C 10°C 15.3°C
24/05/22 09:20 EGJB 240820Z 27010KT 9999 FEW015 13/10 Q1008 11.5mph 13°C 10°C 14.3°C
24/05/22 08:50 EGJB 240750Z 27012KT 9999 FEW012CB 13/10 Q1008 13.8mph 13°C 10°C 14.3°C
24/05/22 08:20 EGJB 240720Z 26010KT 9999 FEW010 FEW012CB 13/10 Q1008 11.5mph 13°C 10°C 14.3°C
24/05/22 07:50 EGJB 240650Z 26010KT 9999 FEW012CB 12/09 Q1007 11.5mph 12°C 9°C 12.8°C
24/05/22 06:50 EGJB 240550Z 27006KT 9999 VCSH FEW012CB SCT015 10/09 Q1007 RESHRA VCSH 6.9mph 10°C 9°C 10.8°C
24/05/22 06:20 EGJB 240520Z 30006KT 9999 -SHRA FEW012CB SCT015 11/09 Q1007 -SHRA 6.9mph 11°C 9°C 11.8°C
24/05/22 05:50 EGJB 240450Z 27011KT 9999 VCSH FEW015CB 11/08 Q1006 VCSH 12.7mph 11°C 8°C 11.4°C
24/05/22 05:20 EGJB 240420Z 27012KT 9999 VCSH FEW012CB 11/09 Q1006 VCSH 13.8mph 11°C 9°C 11.8°C
24/05/22 04:50 EGJB 240350Z 27012KT 9999 VCSH SCT012CB 11/09 Q1006 VCSH 13.8mph 11°C 9°C 11.8°C
24/05/22 04:20 EGJB 240320Z 27010KT 9999 FEW016 11/09 Q1006 11.5mph 11°C 9°C 11.8°C
24/05/22 03:50 EGJB 240250Z 27010KT 9999 FEW016 11/09 Q1006 11.5mph 11°C 9°C 11.8°C
24/05/22 02:50 EGJB 240150Z 26012KT 9999 VCSH FEW012CB 10/08 Q1006 VCSH 13.8mph 10°C 8°C 10.4°C
24/05/22 01:50 EGJB 240050Z 27012KT 9999 VCSH FEW012CB 11/09 Q1005 VCSH 13.8mph 11°C 9°C 11.8°C
24/05/22 00:50 EGJB 232350Z 27013KT 9999 VCSH FEW015 11/09 Q1006 VCSH 15.0mph 11°C 9°C 11.8°C
23/05/22 23:50 EGJB 232250Z 27012KT 9999 VCSH FEW015 11/10 Q1006 VCSH 13.8mph 11°C 10°C 12.3°C
23/05/22 22:50 EGJB 232150Z 27011KT 9999 FEW015 11/09 Q1006 12.7mph 11°C 9°C 11.8°C
23/05/22 21:50 EGJB 232050Z 27012KT 9999 VCSH FEW012CB SCT015 11/10 Q1006 VCSH 13.8mph 11°C 10°C 12.3°C
23/05/22 20:50 EGJB 231950Z 28012KT 9999 VCSH SCT012 11/10 Q1005 VCSH 13.8mph 11°C 10°C 12.3°C
23/05/22 20:20 EGJB 231920Z 26012KT 9999 -SHRA BKN012 12/11 Q1005 -SHRA 13.8mph 12°C 11°C 13.8°C
23/05/22 19:50 EGJB 231850Z 26014KT 9999 FEW009 12/10 Q1005 16.1mph 12°C 10°C 13.3°C
23/05/22 19:20 EGJB 231820Z 26011KT 9999 FEW009 13/10 Q1005 12.7mph 13°C 10°C 14.3°C
23/05/22 18:50 EGJB 231750Z 27012KT 9999 FEW009 13/10 Q1005 13.8mph 13°C 10°C 14.3°C
23/05/22 18:20 EGJB 231720Z 26013KT 9999 FEW009 13/11 Q1005 15.0mph 13°C 11°C 14.8°C
23/05/22 17:50 EGJB 231650Z 27013KT 9999 FEW009 14/10 Q1004 15.0mph 14°C 10°C 15.3°C
23/05/22 17:20 EGJB 231620Z 27013KT 9999 FEW011 14/11 Q1004 15.0mph 14°C 11°C 15.8°C
23/05/22 16:50 EGJB 231550Z 29013KT 9999 FEW011 14/10 Q1004 15.0mph 14°C 10°C 15.3°C
23/05/22 16:20 EGJB 231520Z 27013KT 9999 FEW011 13/11 Q1005 15.0mph 13°C 11°C 14.8°C
23/05/22 15:50 EGJB 231450Z 27013KT 9999 FEW010 14/11 Q1005 15.0mph 14°C 11°C 15.8°C
23/05/22 15:20 EGJB 231420Z 28013KT 9999 FEW010 14/11 Q1004 15.0mph 14°C 11°C 15.8°C
23/05/22 14:50 EGJB 231350Z 28011KT 9999 FEW010 15/11 Q1004 12.7mph 15°C 11°C 16.8°C
23/05/22 14:20 EGJB 231320Z 28013KT 9999 FEW010 15/12 Q1004 15.0mph 15°C 12°C 17.3°C
23/05/22 13:50 EGJB 231250Z 29012KT 9999 FEW009 15/12 Q1005 13.8mph 15°C 12°C 17.3°C
23/05/22 13:20 EGJB 231220Z 28010KT 260V330 9999 FEW010 14/12 Q1005 11.5mph 14°C 12°C 16.3°C
23/05/22 12:50 EGJB 231150Z 29011KT 9999 SCT010 14/11 Q1005 12.7mph 14°C 11°C 15.8°C
23/05/22 12:20 EGJB 231120Z 29011KT 9999 FEW012 14/12 Q1004 12.7mph 14°C 12°C 16.3°C
23/05/22 11:50 EGJB 231050Z 30010KT 9999 FEW007 14/12 Q1004 11.5mph 14°C 12°C 16.3°C
23/05/22 11:20 EGJB 231020Z 28010KT 9999 FEW008 14/12 Q1004 11.5mph 14°C 12°C 16.3°C
23/05/22 10:50 EGJB 230950Z 30011KT 9999 FEW007 14/12 Q1005 12.7mph 14°C 12°C 16.3°C
23/05/22 10:20 EGJB 230920Z 31009KT 280V340 9999 FEW006 14/12 Q1005 10.4mph 14°C 12°C 16.3°C
23/05/22 09:50 EGJB 230850Z 32009KT 9999 FEW005 13/12 Q1005 10.4mph 13°C 12°C 15.3°C
23/05/22 09:20 EGJB 230820Z 31008KT 290V350 9999 FEW005 SCT014 BKN048 13/12 Q1005 9.2mph 13°C 12°C 15.3°C
23/05/22 08:50 EGJB 230750Z 31010KT 9999 FEW004 SCT014 BKN048 13/12 Q1005 11.5mph 13°C 12°C 15.3°C
23/05/22 08:20 EGJB 230720Z 32007KT 9999 FEW003 SCT019 BKN027 13/13 Q1005 8.1mph 13°C 13°C 15.8°C
23/05/22 07:50 EGJB 230650Z 32007KT 9999 FEW003 SCT019 BKN027 13/12 Q1005 8.1mph 13°C 12°C 15.3°C
23/05/22 07:20 EGJB 230620Z 34008KT 9999 FEW001 SCT028 13/12 Q1005 9.2mph 13°C 12°C 15.3°C
23/05/22 06:50 EGJB 230550Z 34007KT 9999 FEW001 SCT032 12/12 Q1005 8.1mph 12°C 12°C 14.3°C
23/05/22 06:20 EGJB 230520Z 33007KT 9999 5000W VCFG SCT001 SCT032 12/12 Q1005 VCFG 8.1mph 12°C 12°C 14.3°C
23/05/22 05:50 EGJB 230450Z 32006KT 9999 8000W VCFG FEW002 SCT032 12/12 Q1005 VCFG 6.9mph 12°C 12°C 14.3°C
23/05/22 05:20 EGJB 230420Z 31006KT 9999 FEW004 SCT032 12/11 Q1005 6.9mph 12°C 11°C 13.8°C
23/05/22 04:50 EGJB 230350Z 31005KT 9999 FEW004 SCT032 12/11 Q1005 5.8mph 12°C 11°C 13.8°C
23/05/22 03:50 EGJB 230250Z 32005KT 9999 VCSH SCT038 12/10 Q1006 VCSH 5.8mph 12°C 10°C 13.3°C
23/05/22 02:50 EGJB 230150Z 34005KT 9999 VCSH SCT038 12/11 Q1006 VCSH 5.8mph 12°C 11°C 13.8°C
23/05/22 01:50 EGJB 230050Z 34005KT 9999 VCSH FEW002 SCT032 BKN048 12/11 Q1007 RESHRA VCSH 5.8mph 12°C 11°C 13.8°C
23/05/22 00:50 EGJB 222350Z 35004KT 9999 SHRA FEW002 SCT032 BKN038 12/12 Q1008 SHRA 4.6mph 12°C 12°C 14.3°C
22/05/22 23:50 EGJB 222250Z 34005KT 310V030 9999 -RA SCT002 BKN038 12/12 Q1008 -RA 5.8mph 12°C 12°C 14.3°C
22/05/22 22:50 EGJB 222150Z VRB02KT 9999 -RA FEW035 14/14 Q1008 -RA 2.3mph 14°C 14°C 17.4°C
22/05/22 21:50 EGJB 222050Z 06005KT 9999 -SHRA FEW035 14/13 Q1008 -SHRA 5.8mph 14°C 13°C 16.8°C
22/05/22 21:20 EGJB 222020Z 04004KT 9999 -SHRA FEW035 14/13 Q1009 RESHRA -SHRA 4.6mph 14°C 13°C 16.8°C
22/05/22 20:50 EGJB 221950Z 01005KT 9999 SHRA FEW035 14/13 Q1009 SHRA 5.8mph 14°C 13°C 16.8°C
22/05/22 20:20 EGJB 221920Z 33005KT 9999 -SHRA FEW035 15/13 Q1009 -SHRA 5.8mph 15°C 13°C 17.8°C
22/05/22 19:50 EGJB 221850Z 03005KT 9999 VCSH FEW035 16/13 Q1009 VCSH 5.8mph 16°C 13°C 18.8°C
22/05/22 19:20 EGJB 221820Z 04004KT CAVOK 17/13 Q1009 4.6mph 17°C 13°C 19.8°C
22/05/22 18:50 EGJB 221750Z 05005KT 010V080 CAVOK 17/13 Q1009 5.8mph 17°C 13°C 19.8°C
22/05/22 18:20 EGJB 221720Z 05004KT 010V100 CAVOK 17/13 Q1010 4.6mph 17°C 13°C 19.8°C
22/05/22 17:50 EGJB 221650Z 07004KT 020V100 CAVOK 17/13 Q1010 4.6mph 17°C 13°C 19.8°C
22/05/22 17:20 EGJB 221620Z 06005KT 350V090 CAVOK 17/13 Q1010 5.8mph 17°C 13°C 19.8°C
22/05/22 16:50 EGJB 221550Z 04005KT CAVOK 17/13 Q1010 5.8mph 17°C 13°C 19.8°C
22/05/22 16:20 EGJB 221520Z 05004KT CAVOK 18/13 Q1011 4.6mph 18°C 13°C 20.8°C